Time;durP1;ratioP1;P1;durP2;ratioP2;P2;SDS_P1;SDS_P2;PMS_P1;PMS_P2;Temp;Humidity;BMP_temperature;BMP_pressure;BME280_temperature;BME280_humidity;BME280_pressure;Samples;Min_cycle;Max_cycle;Signal;HPM_P1;HPM_P2
2021/09/07 00:00:21;;;;;;;13.63;8.03;;;16.10;99.90;;;;;;4950092;28;20220;-84
2021/09/07 00:02:47;;;;;;;14.57;8.73;;;16.00;99.90;;;;;;4982409;28;20693;-85
2021/09/07 00:05:13;;;;;;;14.27;7.63;;;16.00;99.90;;;;;;4966705;28;20255;-86
2021/09/07 00:07:39;;;;;;;10.47;6.50;;;15.80;99.90;;;;;;4966226;28;20220;-85
2021/09/07 00:10:11;;;;;;;11.93;7.60;;;15.60;99.90;;;;;;4982396;28;20221;-86
2021/09/07 00:12:37;;;;;;;11.93;8.43;;;15.40;99.90;;;;;;4965757;28;20236;-84
2021/09/07 00:15:05;;;;;;;13.40;7.73;;;15.30;99.90;;;;;;4965731;28;20231;-85
2021/09/07 00:17:30;;;;;;;14.73;8.57;;;15.20;99.90;;;;;;4981465;28;20228;-86
2021/09/07 00:19:56;;;;;;;15.47;8.43;;;15.10;99.90;;;;;;4982443;28;20279;-85
2021/09/07 00:22:22;;;;;;;11.97;6.50;;;15.00;99.90;;;;;;4966367;28;20244;-85
2021/09/07 00:24:48;;;;;;;18.73;8.13;;;14.80;99.90;;;;;;4966420;28;20701;-86
2021/09/07 00:27:13;;;;;;;11.93;7.47;;;14.70;99.90;;;;;;4966000;28;20228;-86
2021/09/07 00:29:39;;;;;;;12.03;7.47;;;14.80;99.90;;;;;;4966219;28;20184;-86
2021/09/07 00:32:06;;;;;;;12.93;8.23;;;14.80;99.90;;;;;;4982615;28;20200;-84
2021/09/07 00:34:32;;;;;;;13.67;7.23;;;14.50;99.90;;;;;;4965691;28;20363;-85
2021/09/07 00:36:58;;;;;;;12.97;7.77;;;14.50;99.90;;;;;;4982008;28;20231;-85
2021/09/07 00:39:23;;;;;;;12.47;7.30;;;14.40;99.90;;;;;;4981509;28;20224;-86
2021/09/07 00:41:50;;;;;;;13.97;8.47;;;14.40;99.90;;;;;;4965631;28;20312;-86
2021/09/07 00:44:22;;;;;;;12.87;8.80;;;14.40;99.90;;;;;;4966215;28;20193;-85
2021/09/07 00:46:53;;;;;;;13.03;8.53;;;14.30;99.90;;;;;;4981791;28;20205;-84
2021/09/07 00:49:20;;;;;;;17.60;8.87;;;14.40;99.90;;;;;;4965451;28;20280;-83
2021/09/07 00:51:47;;;;;;;13.13;6.90;;;14.30;99.90;;;;;;4981987;28;20283;-84
2021/09/07 00:54:14;;;;;;;13.93;7.67;;;14.20;99.90;;;;;;4965872;28;20229;-85
2021/09/07 00:56:41;;;;;;;17.43;9.10;;;14.20;99.90;;;;;;4965333;28;20193;-85
2021/09/07 00:59:08;;;;;;;15.07;8.27;;;14.20;99.90;;;;;;4965883;28;20206;-86
2021/09/07 01:01:34;;;;;;;13.93;8.97;;;14.20;99.90;;;;;;4965268;28;20451;-85
2021/09/07 01:04:00;;;;;;;15.37;9.50;;;14.20;99.90;;;;;;4963721;28;20227;-84
2021/09/07 01:06:26;;;;;;;21.07;10.40;;;14.20;99.90;;;;;;4963590;28;20216;-87
2021/09/07 01:08:56;;;;;;;15.60;10.60;;;14.30;99.90;;;;;;4965066;28;20255;-87
2021/09/07 01:11:21;;;;;;;15.60;8.00;;;14.30;99.90;;;;;;4965356;28;21079;-86
2021/09/07 01:13:48;;;;;;;14.87;9.60;;;14.40;99.90;;;;;;4965854;28;20208;-86
2021/09/07 01:16:14;;;;;;;14.40;8.50;;;14.40;99.90;;;;;;4965268;28;20239;-85
2021/09/07 01:18:40;;;;;;;17.23;9.37;;;14.50;99.90;;;;;;4965431;28;20757;-85
2021/09/07 01:21:10;;;;;;;13.40;8.60;;;14.40;99.90;;;;;;4966690;28;20224;-84
2021/09/07 01:23:38;;;;;;;17.20;8.30;;;14.40;99.90;;;;;;4964677;28;20209;-85
2021/09/07 01:26:04;;;;;;;14.50;8.17;;;14.30;99.90;;;;;;4967015;28;20197;-85
2021/09/07 01:28:32;;;;;;;14.97;7.93;;;14.30;99.90;;;;;;4964214;28;20220;-85
2021/09/07 01:30:58;;;;;;;16.43;10.00;;;14.40;99.90;;;;;;4963417;28;20227;-85
2021/09/07 01:33:24;;;;;;;19.73;10.60;;;14.50;99.90;;;;;;4964739;28;20220;-84
2021/09/07 01:35:50;;;;;;;28.53;12.07;;;14.60;99.90;;;;;;4964107;28;20243;-85
2021/09/07 01:38:15;;;;;;;18.20;11.17;;;14.80;99.90;;;;;;4981785;28;20248;-86
2021/09/07 01:40:41;;;;;;;21.53;11.80;;;14.80;99.90;;;;;;4980313;28;20223;-87
2021/09/07 01:43:13;;;;;;;24.63;12.33;;;14.90;99.90;;;;;;4980749;28;20271;-85
2021/09/07 01:45:39;;;;;;;25.03;10.90;;;15.00;99.90;;;;;;4980339;28;20225;-85
2021/09/07 01:48:05;;;;;;;16.37;10.93;;;15.00;99.90;;;;;;4964217;28;20239;-86
2021/09/07 01:50:30;;;;;;;21.27;11.47;;;15.10;99.90;;;;;;4963762;28;20192;-85
2021/09/07 01:52:56;;;;;;;13.80;10.07;;;15.10;99.90;;;;;;4964879;28;21019;-86
2021/09/07 01:55:22;;;;;;;21.73;12.10;;;15.20;99.90;;;;;;4963370;28;20227;-84
2021/09/07 01:57:49;;;;;;;20.33;12.20;;;15.20;99.90;;;;;;4964041;28;20682;-85
2021/09/07 02:00:16;;;;;;;16.47;10.93;;;15.30;99.90;;;;;;4964106;28;20239;-85
2021/09/07 02:02:41;;;;;;;18.37;10.57;;;15.30;99.90;;;;;;4979681;28;20240;-86
2021/09/07 02:05:08;;;;;;;18.73;11.80;;;15.30;99.90;;;;;;4964473;28;20588;-86
2021/09/07 02:07:33;;;;;;;17.37;9.37;;;15.30;99.90;;;;;;4947665;28;20240;-84
2021/09/07 02:09:59;;;;;;;20.03;10.30;;;15.40;99.90;;;;;;4964019;28;20317;-84
2021/09/07 02:12:25;;;;;;;17.30;11.00;;;15.30;99.90;;;;;;4964220;28;20620;-84
2021/09/07 02:14:52;;;;;;;21.13;11.90;;;15.40;99.90;;;;;;4962993;28;20229;-83
2021/09/07 02:17:17;;;;;;;19.37;9.93;;;15.40;99.90;;;;;;4964044;28;20292;-86
2021/09/07 02:19:43;;;;;;;15.90;10.67;;;15.40;99.90;;;;;;4979181;28;20371;-85
2021/09/07 02:22:09;;;;;;;17.40;10.97;;;15.40;99.90;;;;;;4963103;28;20964;-84
2021/09/07 02:24:34;;;;;;;15.03;10.30;;;15.50;99.90;;;;;;4963188;28;20240;-87
2021/09/07 02:27:00;;;;;;;23.17;11.87;;;15.50;99.90;;;;;;4963518;28;20244;-84
2021/09/07 02:29:26;;;;;;;17.03;11.10;;;15.60;99.90;;;;;;4962667;28;20558;-84
2021/09/07 02:31:52;;;;;;;18.97;11.37;;;15.60;99.90;;;;;;4980541;28;20599;-86
2021/09/07 02:34:17;;;;;;;20.07;10.83;;;15.60;99.90;;;;;;4963656;28;20698;-84
2021/09/07 02:36:43;;;;;;;15.53;10.67;;;15.70;99.90;;;;;;4963646;28;20216;-84
2021/09/07 02:39:09;;;;;;;17.53;11.43;;;15.70;99.90;;;;;;4979163;28;20248;-86
2021/09/07 02:41:34;;;;;;;19.07;10.77;;;15.60;99.90;;;;;;4979992;28;20236;-85
2021/09/07 02:44:00;;;;;;;19.20;11.73;;;15.60;99.90;;;;;;4944507;28;1149132;-84
2021/09/07 02:46:26;;;;;;;17.30;10.87;;;15.60;99.90;;;;;;4982731;28;20366;-84
2021/09/07 02:48:52;;;;;;;17.70;11.43;;;15.70;99.90;;;;;;4967420;28;20227;-85
2021/09/07 02:51:18;;;;;;;16.97;10.97;;;15.70;99.90;;;;;;4964502;28;20331;-85
2021/09/07 02:53:43;;;;;;;18.90;10.03;;;15.70;99.90;;;;;;4962819;28;21054;-84
2021/09/07 02:56:09;;;;;;;14.23;9.93;;;15.70;99.90;;;;;;4964810;28;20185;-84
2021/09/07 02:58:35;;;;;;;17.53;10.73;;;15.70;99.90;;;;;;4963099;28;20229;-87
2021/09/07 03:01:01;;;;;;;15.27;9.80;;;15.70;99.90;;;;;;4947609;28;20235;-85
2021/09/07 03:03:26;;;;;;;15.33;9.57;;;15.80;99.90;;;;;;4963586;28;20647;-84
2021/09/07 03:05:52;;;;;;;15.10;10.73;;;15.80;99.90;;;;;;4966723;28;20224;-85
2021/09/07 03:08:18;;;;;;;19.33;9.77;;;15.80;99.90;;;;;;4974424;28;20189;-84
2021/09/07 03:10:43;;;;;;;14.40;9.23;;;15.80;99.90;;;;;;4962622;28;21001;-84
2021/09/07 03:13:10;;;;;;;15.63;9.30;;;15.80;99.90;;;;;;4963453;28;20311;-85
2021/09/07 03:15:36;;;;;;;15.43;9.87;;;15.80;99.90;;;;;;4962433;28;20227;-84
2021/09/07 03:18:02;;;;;;;14.70;8.40;;;15.90;99.90;;;;;;4964212;28;20217;-84
2021/09/07 03:20:28;;;;;;;15.17;8.60;;;15.90;99.90;;;;;;4966922;28;20284;-87
2021/09/07 03:22:53;;;;;;;15.13;8.47;;;15.90;99.90;;;;;;4967761;28;20220;-85
2021/09/07 03:25:19;;;;;;;20.83;10.10;;;15.90;99.90;;;;;;4967260;28;20701;-86
2021/09/07 03:27:45;;;;;;;20.83;8.60;;;16.00;99.90;;;;;;4966607;28;21149;-86
2021/09/07 03:30:11;;;;;;;15.60;9.17;;;16.00;99.90;;;;;;4966521;28;21142;-85
2021/09/07 03:32:39;;;;;;;11.50;8.17;;;16.00;99.90;;;;;;4966361;28;20272;-86
2021/09/07 03:35:06;;;;;;;18.07;9.57;;;16.00;99.90;;;;;;4983283;28;20192;-86
2021/09/07 03:37:31;;;;;;;12.07;7.73;;;16.10;99.90;;;;;;4966748;28;20225;-86
2021/09/07 03:39:57;;;;;;;11.17;7.57;;;16.10;99.90;;;;;;4983089;28;20231;-86
2021/09/07 03:42:23;;;;;;;13.17;8.10;;;16.10;99.90;;;;;;4966399;28;20331;-86
2021/09/07 03:44:49;;;;;;;12.80;7.93;;;16.20;99.90;;;;;;4982952;28;20646;-84
2021/09/07 03:47:14;;;;;;;12.10;8.07;;;16.10;99.90;;;;;;4975711;28;21507;-85
2021/09/07 03:49:40;;;;;;;13.13;7.30;;;16.20;99.90;;;;;;4966675;28;20938;-85
2021/09/07 03:52:06;;;;;;;10.40;8.00;;;16.20;99.90;;;;;;4967203;28;20236;-88
2021/09/07 03:54:32;;;;;;;10.67;7.90;;;16.20;99.90;;;;;;4965031;28;20228;-85
2021/09/07 03:56:58;;;;;;;12.93;8.30;;;16.20;99.90;;;;;;4966714;28;20270;-86
2021/09/07 03:59:23;;;;;;;16.03;9.27;;;16.20;99.90;;;;;;4974981;28;21098;-85
2021/09/07 04:01:50;;;;;;;14.80;7.73;;;16.20;99.90;;;;;;4966829;28;20544;-86
2021/09/07 04:04:17;;;;;;;13.67;8.37;;;16.10;99.90;;;;;;4966428;28;20303;-86
2021/09/07 04:06:42;;;;;;;11.70;8.10;;;16.00;99.90;;;;;;4982185;28;20224;-86
2021/09/07 04:09:08;;;;;;;11.53;6.73;;;16.00;99.90;;;;;;4973655;28;20777;-86
2021/09/07 04:11:34;;;;;;;13.93;8.33;;;16.00;99.90;;;;;;4965687;28;20275;-85
2021/09/07 04:14:00;;;;;;;13.73;7.77;;;15.90;99.90;;;;;;4967288;28;20972;-85
2021/09/07 04:16:26;;;;;;;12.53;7.40;;;15.80;99.90;;;;;;4966000;28;20720;-84
2021/09/07 04:18:51;;;;;;;13.43;7.20;;;15.70;99.90;;;;;;4981752;28;20287;-84
2021/09/07 04:21:17;;;;;;;10.97;7.53;;;15.60;99.90;;;;;;4965559;28;20718;-86
2021/09/07 04:23:43;;;;;;;13.13;8.17;;;15.50;99.90;;;;;;4966147;28;20299;-84
2021/09/07 04:26:09;;;;;;;10.73;7.10;;;15.50;99.90;;;;;;4966552;28;21015;-85
2021/09/07 04:28:34;;;;;;;19.37;7.83;;;15.40;99.90;;;;;;4965769;28;20224;-85
2021/09/07 04:31:00;;;;;;;12.43;7.73;;;15.40;99.90;;;;;;4965083;28;20212;-86
2021/09/07 04:33:26;;;;;;;11.70;7.03;;;15.40;99.90;;;;;;4965626;28;20706;-86
2021/09/07 04:35:51;;;;;;;18.30;8.67;;;15.40;99.90;;;;;;4965882;28;20331;-86
2021/09/07 04:38:17;;;;;;;17.33;8.53;;;15.40;99.90;;;;;;4966947;28;20200;-85
2021/09/07 04:40:43;;;;;;;14.97;8.63;;;15.40;99.90;;;;;;4973653;28;20224;-84
2021/09/07 04:43:09;;;;;;;11.13;7.43;;;15.30;99.90;;;;;;4981812;28;20271;-86
2021/09/07 04:45:34;;;;;;;11.73;7.57;;;15.10;99.90;;;;;;4965969;28;20633;-87
2021/09/07 04:48:00;;;;;;;9.40;5.80;;;14.80;99.90;;;;;;4965607;28;20224;-87
2021/09/07 04:50:26;;;;;;;10.37;6.40;;;14.60;99.90;;;;;;4965823;28;20242;-85
2021/09/07 04:52:52;;;;;;;11.50;7.67;;;14.50;99.90;;;;;;4965907;28;20199;-85
2021/09/07 04:55:17;;;;;;;14.37;9.03;;;14.60;99.90;;;;;;4972580;28;20232;-85
2021/09/07 04:57:43;;;;;;;16.70;8.17;;;14.70;99.90;;;;;;4964644;28;20263;-84
2021/09/07 05:00:09;;;;;;;20.53;9.40;;;14.70;99.90;;;;;;4981257;28;20255;-84
2021/09/07 05:02:36;;;;;;;14.57;7.73;;;14.70;99.90;;;;;;4965648;28;20231;-86
2021/09/07 05:05:06;;;;;;;13.60;7.43;;;14.70;99.90;;;;;;4982199;28;20228;-86
2021/09/07 05:07:32;;;;;;;17.03;8.23;;;14.70;99.90;;;;;;4965599;28;20225;-85
2021/09/07 05:09:57;;;;;;;11.80;8.20;;;14.80;99.90;;;;;;4965712;28;20232;-86
2021/09/07 05:12:25;;;;;;;13.37;9.33;;;14.90;99.90;;;;;;4965045;28;20236;-85
2021/09/07 05:14:51;;;;;;;14.40;9.47;;;15.00;99.90;;;;;;4965035;28;20220;-86
2021/09/07 05:17:16;;;;;;;17.77;9.77;;;15.10;99.90;;;;;;4981542;28;20201;-86
2021/09/07 05:19:42;;;;;;;16.93;8.67;;;15.20;99.90;;;;;;4966259;28;20683;-85
2021/09/07 05:22:08;;;;;;;11.80;8.97;;;15.20;99.90;;;;;;4964939;28;20899;-86
2021/09/07 05:24:34;;;;;;;14.70;9.17;;;15.30;99.90;;;;;;4980928;28;20687;-87
2021/09/07 05:26:59;;;;;;;13.03;7.93;;;15.40;99.90;;;;;;4964643;28;20224;-85
2021/09/07 05:29:25;;;;;;;16.97;9.27;;;15.40;99.90;;;;;;4965118;28;20252;-84
2021/09/07 05:31:51;;;;;;;15.63;8.70;;;15.40;99.90;;;;;;4949145;28;20205;-86
2021/09/07 05:34:17;;;;;;;18.10;8.90;;;15.50;99.90;;;;;;4965631;28;20678;-85
2021/09/07 05:36:43;;;;;;;19.83;8.00;;;15.50;99.90;;;;;;4965259;28;20224;-84
2021/09/07 05:39:09;;;;;;;11.93;7.87;;;15.50;99.90;;;;;;4980418;28;20313;-85
2021/09/07 05:41:34;;;;;;;14.63;9.17;;;15.60;99.90;;;;;;4964596;28;20247;-86
2021/09/07 05:44:00;;;;;;;13.93;9.23;;;15.60;99.90;;;;;;4965013;28;20236;-87
2021/09/07 05:46:26;;;;;;;14.97;8.93;;;15.70;99.90;;;;;;4966481;28;20311;-88
2021/09/07 05:48:52;;;;;;;19.17;10.00;;;15.80;99.90;;;;;;4981032;28;20291;-86
2021/09/07 05:51:17;;;;;;;16.53;9.23;;;15.90;99.90;;;;;;4980909;28;21222;-86
2021/09/07 05:53:43;;;;;;;14.07;8.07;;;16.20;99.90;;;;;;4964871;28;20312;-87
2021/09/07 05:56:11;;;;;;;13.63;7.73;;;16.30;99.90;;;;;;4966276;28;20196;-84
2021/09/07 05:58:40;;;;;;;12.83;7.37;;;16.20;99.90;;;;;;4949220;28;20229;-89
2021/09/07 06:01:06;;;;;;;15.57;8.10;;;16.20;99.90;;;;;;4981505;28;20225;-87
2021/09/07 06:03:31;;;;;;;16.77;8.63;;;16.20;99.90;;;;;;4965359;28;20244;-88
2021/09/07 06:05:57;;;;;;;12.10;7.53;;;16.30;99.90;;;;;;4979461;28;20234;-89
2021/09/07 06:08:23;;;;;;;14.17;8.07;;;16.50;99.90;;;;;;4981266;28;20185;-89
2021/09/07 06:10:49;;;;;;;16.30;8.43;;;17.10;99.90;;;;;;4965381;28;20185;-88
2021/09/07 06:13:15;;;;;;;15.40;8.20;;;18.00;99.90;;;;;;4960646;28;20229;-90
2021/09/07 06:15:42;;;;;;;15.93;8.83;;;18.70;99.90;;;;;;4960213;28;20219;-90
2021/09/07 06:18:08;;;;;;;10.43;7.13;;;19.10;99.90;;;;;;4964694;28;20225;-88
2021/09/07 06:20:34;;;;;;;11.73;7.13;;;18.90;99.90;;;;;;4966769;28;20196;-87
2021/09/07 06:23:00;;;;;;;12.50;7.73;;;18.60;99.90;;;;;;4984469;28;20220;-86
2021/09/07 06:25:26;;;;;;;10.13;6.77;;;18.20;99.90;;;;;;4952972;28;20222;-86
2021/09/07 06:27:51;;;;;;;13.13;7.33;;;17.80;99.90;;;;;;4968198;28;20733;-87
2021/09/07 06:30:17;;;;;;;12.90;8.00;;;17.50;99.90;;;;;;4968388;28;20347;-88
2021/09/07 06:32:43;;;;;;;11.97;6.60;;;17.40;99.90;;;;;;4967991;28;20248;-86
2021/09/07 06:35:10;;;;;;;13.43;8.37;;;17.50;99.90;;;;;;4984843;28;20662;-87
2021/09/07 06:37:36;;;;;;;15.33;7.50;;;17.60;99.90;;;;;;4984100;28;20216;-87
2021/09/07 06:40:03;;;;;;;14.00;7.30;;;17.80;99.90;;;;;;4969444;28;20216;-88
2021/09/07 06:42:29;;;;;;;13.37;8.40;;;18.00;99.90;;;;;;4968671;28;20228;-87
2021/09/07 06:44:55;;;;;;;12.70;7.73;;;18.30;99.90;;;;;;4976977;28;20244;-87
2021/09/07 06:47:20;;;;;;;18.23;8.60;;;18.70;99.90;;;;;;4953950;28;20193;-87
2021/09/07 06:49:46;;;;;;;13.17;7.17;;;19.40;99.90;;;;;;4968181;28;20776;-88
2021/09/07 06:52:12;;;;;;;14.87;8.03;;;20.70;99.90;;;;;;4984617;28;20225;-88
2021/09/07 06:54:38;;;;;;;17.13;7.53;;;22.10;99.90;;;;;;4968609;28;20643;-88
2021/09/07 06:57:04;;;;;;;20.27;7.40;;;23.50;99.90;;;;;;4968107;28;20224;-87
2021/09/07 06:59:30;;;;;;;12.50;7.83;;;24.50;99.90;;;;;;4967974;28;20283;-88
2021/09/07 07:01:55;;;;;;;13.47;8.10;;;24.80;99.90;;;;;;4968400;28;20789;-87
2021/09/07 07:04:21;;;;;;;10.33;7.13;;;25.20;99.90;;;;;;4967631;28;20278;-87
2021/09/07 07:06:47;;;;;;;11.37;6.90;;;26.10;99.90;;;;;;4967601;28;20300;-88
2021/09/07 07:09:12;;;;;;;12.10;6.70;;;27.70;99.90;;;;;;4967704;28;20670;-88
2021/09/07 07:11:38;;;;;;;11.27;7.28;;;29.10;99.90;;;;;;4968273;28;20276;-87
2021/09/07 07:14:04;;;;;;;15.50;8.05;;;29.50;99.90;;;;;;4968298;28;20666;-89
2021/09/07 07:16:30;;;;;;;14.07;7.25;;;29.70;99.90;;;;;;4984408;28;20216;-88
2021/09/07 07:18:55;;;;;;;11.63;8.07;;;29.20;99.90;;;;;;4968456;28;20216;-89
2021/09/07 07:21:22;;;;;;;12.20;8.02;;;29.10;99.90;;;;;;4967970;28;20229;-89
2021/09/07 07:23:48;;;;;;;11.07;7.85;;;29.50;99.90;;;;;;4967260;28;20323;-88
2021/09/07 07:26:13;;;;;;;13.82;7.93;;;29.10;99.90;;;;;;4968543;28;20307;-88
2021/09/07 07:28:39;;;;;;;11.32;7.82;;;28.00;99.90;;;;;;4967639;28;20248;-88
2021/09/07 07:31:05;;;;;;;13.10;7.35;;;27.40;99.90;;;;;;4968191;28;20324;-87
2021/09/07 07:33:31;;;;;;;11.70;7.47;;;28.10;99.90;;;;;;4967769;28;20209;-88
2021/09/07 07:35:57;;;;;;;11.18;7.05;;;28.80;99.90;;;;;;4967337;28;20307;-88
2021/09/07 07:38:22;;;;;;;13.38;7.72;;;29.50;99.90;;;;;;4967466;28;20989;-89
2021/09/07 07:40:48;;;;;;;12.02;7.00;;;30.00;99.90;;;;;;4967631;28;20199;-89
2021/09/07 07:43:15;;;;;;;11.88;7.35;;;28.90;99.90;;;;;;4950874;28;20239;-87
2021/09/07 07:45:41;;;;;;;13.35;7.70;;;26.10;99.90;;;;;;4984055;28;20220;-87
2021/09/07 07:48:06;;;;;;;12.35;8.18;;;24.90;99.90;;;;;;4966409;28;20228;-88
2021/09/07 07:50:32;;;;;;;14.15;7.82;;;23.50;99.90;;;;;;4967184;28;20281;-88
2021/09/07 07:53:02;;;;;;;15.18;7.40;;;23.20;99.90;;;;;;4967453;28;20197;-88
2021/09/07 07:55:29;;;;;;;14.77;7.40;;;24.90;99.90;;;;;;4967385;28;20231;-87
2021/09/07 07:57:54;;;;;;;13.00;8.45;;;27.60;99.90;;;;;;4966847;28;20254;-88
2021/09/07 08:00:20;;;;;;;12.02;8.27;;;29.30;99.90;;;;;;4966774;28;20299;-87
2021/09/07 08:02:46;;;;;;;12.98;8.60;;;30.20;99.90;;;;;;4983422;28;20560;-88
2021/09/07 08:05:12;;;;;;;14.38;7.88;;;31.10;99.90;;;;;;4967955;28;20189;-87
2021/09/07 08:07:37;;;;;;;11.68;7.63;;;32.00;99.90;;;;;;4967044;28;20247;-86
2021/09/07 08:10:04;;;;;;;12.38;7.30;;;32.60;99.90;;;;;;4967026;28;20224;-89
2021/09/07 08:12:30;;;;;;;17.00;7.57;;;32.90;99.90;;;;;;4967297;28;20236;-88
2021/09/07 08:14:55;;;;;;;16.13;7.82;;;32.50;99.90;;;;;;4965835;28;20243;-87
2021/09/07 08:17:21;;;;;;;13.48;7.93;;;32.80;99.90;;;;;;4974320;28;20296;-88
2021/09/07 08:19:47;;;;;;;12.43;6.97;;;33.30;99.90;;;;;;4966743;28;20869;-89
2021/09/07 08:22:14;;;;;;;11.10;6.82;;;33.60;99.90;;;;;;4966857;28;20734;-89
2021/09/07 08:24:40;;;;;;;9.48;6.40;;;33.70;99.90;;;;;;4966549;28;20227;-87
2021/09/07 08:27:06;;;;;;;12.15;6.50;;;33.40;99.40;;;;;;4966896;28;20211;-88
2021/09/07 08:29:32;;;;;;;9.38;5.70;;;33.30;99.30;;;;;;4966682;28;20236;-88
2021/09/07 08:31:58;;;;;;;11.10;6.32;;;33.20;99.30;;;;;;4966863;28;20231;-87
2021/09/07 08:34:24;;;;;;;13.02;6.53;;;32.80;99.30;;;;;;4966084;28;20217;-88
2021/09/07 08:36:50;;;;;;;10.70;6.60;;;32.70;99.60;;;;;;4967287;28;20227;-86
2021/09/07 08:39:16;;;;;;;12.88;6.75;;;32.50;99.80;;;;;;4965610;28;20228;-87
2021/09/07 08:41:42;;;;;;;8.90;6.30;;;32.30;99.90;;;;;;4967393;28;20240;-87
2021/09/07 08:44:08;;;;;;;12.60;5.97;;;32.70;99.90;;;;;;4965902;28;20243;-87
2021/09/07 08:46:34;;;;;;;13.13;6.28;;;33.20;99.80;;;;;;4965727;28;20228;-88
2021/09/07 08:49:00;;;;;;;14.93;6.88;;;33.70;98.40;;;;;;4965729;28;20240;-87
2021/09/07 08:51:25;;;;;;;12.60;7.85;;;33.30;99.00;;;;;;4965891;28;20228;-86
2021/09/07 08:53:53;;;;;;;10.32;6.18;;;33.90;99.20;;;;;;4981888;28;20772;-87
2021/09/07 08:56:20;;;;;;;10.40;6.90;;;34.00;97.90;;;;;;4982404;28;20682;-88
2021/09/07 08:58:46;;;;;;;11.60;7.18;;;33.60;99.10;;;;;;4967235;28;20586;-86
2021/09/07 09:01:16;;;;;;;12.63;7.20;;;32.80;99.30;;;;;;4982530;28;20288;-87
2021/09/07 09:03:43;;;;;;;12.52;7.38;;;32.80;99.00;;;;;;4982646;28;21062;-89
2021/09/07 09:06:09;;;;;;;11.88;7.35;;;32.50;99.70;;;;;;4966602;28;20223;-87
2021/09/07 09:08:36;;;;;;;16.48;7.85;;;33.10;99.00;;;;;;4965434;28;20204;-86
2021/09/07 09:11:08;;;;;;;12.80;7.55;;;32.20;99.90;;;;;;4967038;28;20197;-87
2021/09/07 09:13:42;;;;;;;14.35;7.55;;;31.50;99.90;;;;;;4965431;28;20652;-86
2021/09/07 09:16:09;;;;;;;13.27;7.07;;;31.80;99.90;;;;;;4981468;28;20212;-87
2021/09/07 09:18:43;;;;;;;13.60;7.43;;;32.10;99.00;;;;;;4966347;28;20287;-89
2021/09/07 09:21:24;;;;;;;13.60;7.47;;;32.60;98.70;;;;;;4981491;28;20212;-89
2021/09/07 09:24:09;;;;;;;11.93;7.60;;;33.40;98.80;;;;;;4965219;28;20228;-88
2021/09/07 09:26:51;;;;;;;10.93;7.40;;;33.30;98.70;;;;;;4965582;28;20196;-87
2021/09/07 09:29:37;;;;;;;11.52;7.03;;;33.30;97.60;;;;;;4966891;28;20185;-88
2021/09/07 09:32:10;;;;;;;14.35;7.68;;;33.60;97.70;;;;;;4982082;28;20228;-89
2021/09/07 09:34:38;;;;;;;14.80;7.63;;;33.70;96.70;;;;;;4965279;28;20343;-89
2021/09/07 09:37:06;;;;;;;13.23;6.55;;;33.80;96.60;;;;;;4965254;28;20248;-87
2021/09/07 09:39:43;;;;;;;11.65;7.40;;;34.00;96.50;;;;;;4981651;28;20217;-86
2021/09/07 09:42:13;;;;;;;11.85;7.18;;;31.40;99.50;;;;;;4965713;28;20622;-88
2021/09/07 09:44:38;;;;;;;12.65;7.30;;;31.60;99.90;;;;;;4965737;28;20578;-88
2021/09/07 09:47:05;;;;;;;12.20;7.57;;;31.40;99.30;;;;;;4966863;28;20709;-89
2021/09/07 09:49:32;;;;;;;10.93;6.90;;;30.70;99.90;;;;;;4965900;28;20220;-86
2021/09/07 09:52:16;;;;;;;10.65;7.05;;;31.30;99.90;;;;;;4982684;28;20254;-87
2021/09/07 09:54:42;;;;;;;10.82;6.50;;;31.90;99.30;;;;;;4969340;28;20220;-87
2021/09/07 09:57:08;;;;;;;9.80;6.70;;;31.30;99.90;;;;;;4969079;28;20275;-87
2021/09/07 09:59:34;;;;;;;12.35;7.40;;;30.80;99.90;;;;;;4984750;28;20201;-87
2021/09/07 10:02:01;;;;;;;17.23;8.07;;;32.00;99.00;;;;;;4985747;28;20223;-87
2021/09/07 10:04:30;;;;;;;10.55;6.57;;;32.80;98.40;;;;;;4984934;28;20224;-87
2021/09/07 10:06:55;;;;;;;8.68;5.90;;;33.20;97.80;;;;;;4969720;28;20221;-85
2021/09/07 10:09:23;;;;;;;9.95;6.65;;;33.60;97.20;;;;;;4969134;28;20224;-85
2021/09/07 10:12:17;;;;;;;12.70;6.97;;;32.70;97.80;;;;;;4967883;28;21149;-85
2021/09/07 10:14:51;;;;;;;12.27;6.53;;;33.10;97.50;;;;;;4964959;28;20746;-90
2021/09/07 10:20:33;;;;;;;11.80;7.63;;;33.70;96.60;;;;;;4967556;28;20267;-90
2021/09/07 10:23:28;;;;;;;13.18;7.55;;;32.90;97.40;;;;;;4967310;28;20209;-89
2021/09/07 10:26:03;;;;;;;13.00;8.00;;;33.40;97.70;;;;;;4969202;28;20208;-90
2021/09/07 10:28:42;;;;;;;13.30;8.02;;;32.60;98.00;;;;;;4984282;28;20228;-88
2021/09/07 10:31:23;;;;;;;17.40;8.07;;;31.80;98.70;;;;;;4966026;28;21164;-88
2021/09/07 10:34:01;;;;;;;16.73;8.98;;;30.50;99.90;;;;;;4957754;28;20270;-91
2021/09/07 10:36:36;;;;;;;16.80;10.10;;;30.90;99.90;;;;;;4983783;28;20221;-88
2021/09/07 10:39:07;;;;;;;14.60;8.40;;;30.50;99.50;;;;;;4983951;28;21118;-89
2021/09/07 10:41:33;;;;;;;15.38;8.90;;;31.10;99.90;;;;;;4970132;28;20189;-89
2021/09/07 10:44:09;;;;;;;15.88;9.20;;;32.10;99.60;;;;;;4969295;28;20224;-89
2021/09/07 10:46:55;;;;;;;17.10;8.85;;;32.70;98.90;;;;;;4968742;28;20714;-91
2021/09/07 10:49:33;;;;;;;15.55;8.35;;;32.30;98.00;;;;;;4968004;28;20325;-89
2021/09/07 10:52:26;;;;;;;20.30;10.10;;;32.70;99.10;;;;;;4984843;28;20216;-89
2021/09/07 10:54:52;;;;;;;13.10;8.52;;;33.40;98.50;;;;;;4969736;28;20291;-90
2021/09/07 11:00:24;;;;;;;14.02;8.55;;;32.80;98.00;;;;;;4968827;28;20256;-90
2021/09/07 11:02:57;;;;;;;13.35;7.85;;;32.40;97.20;;;;;;4968902;28;20236;-89
2021/09/07 11:05:23;;;;;;;14.32;8.98;;;32.10;99.30;;;;;;4984044;28;20192;-91
2021/09/07 11:07:50;;;;;;;12.10;7.93;;;31.50;99.50;;;;;;4969583;28;21136;-89
2021/09/07 11:10:19;;;;;;;14.68;8.85;;;31.50;98.80;;;;;;4984401;28;20229;-88
2021/09/07 11:12:56;;;;;;;12.32;7.28;;;32.20;99.70;;;;;;4968132;28;20339;-90
2021/09/07 11:15:24;;;;;;;16.17;7.47;;;32.60;98.70;;;;;;4952398;28;20235;-91
2021/09/07 11:17:52;;;;;;;16.85;9.23;;;32.60;98.10;;;;;;4968011;28;20221;-92
2021/09/07 11:20:19;;;;;;;15.20;8.55;;;32.00;98.60;;;;;;4969239;28;20189;-92
2021/09/07 11:22:45;;;;;;;14.32;9.00;;;31.40;99.50;;;;;;4983897;28;20240;-92
2021/09/07 11:25:17;;;;;;;14.55;8.10;;;31.60;99.30;;;;;;4967353;28;20216;-92
2021/09/07 11:28:00;;;;;;;22.33;9.50;;;29.90;99.90;;;;;;4980434;28;21090;-90
2021/09/07 11:30:47;;;;;;;14.82;8.80;;;30.20;99.90;;;;;;4964837;28;20239;-90
2021/09/07 11:33:16;;;;;;;20.77;11.60;;;31.10;99.80;;;;;;4964966;28;20224;-92
2021/09/07 11:35:45;;;;;;;14.57;8.75;;;31.60;99.90;;;;;;4983492;28;20219;-91
2021/09/07 11:38:24;;;;;;;15.55;8.90;;;31.30;99.00;;;;;;4983635;28;20180;-91
2021/09/07 11:40:57;;;;;;;11.73;7.15;;;31.20;98.20;;;;;;4967854;28;20240;-92
2021/09/07 11:43:42;;;;;;;17.95;9.90;;;31.30;98.60;;;;;;4967253;28;20328;-91
2021/09/07 11:46:11;;;;;;;24.65;12.77;;;31.00;99.30;;;;;;4983852;28;20587;-92
2021/09/07 11:48:48;;;;;;;15.38;7.88;;;31.10;99.80;;;;;;4967209;28;20248;-93
2021/09/07 11:51:16;;;;;;;14.10;7.97;;;31.10;99.20;;;;;;4967345;28;20216;-92
2021/09/07 11:53:43;;;;;;;11.63;7.45;;;30.70;99.80;;;;;;4983810;28;20232;-91
2021/09/07 11:56:19;;;;;;;16.10;8.75;;;30.10;99.90;;;;;;4965465;28;20231;-91
2021/09/07 11:58:44;;;;;;;12.30;7.95;;;30.10;99.90;;;;;;4983243;28;20223;-90
2021/09/07 12:01:12;;;;;;;13.20;8.13;;;30.50;99.60;;;;;;4967147;28;20228;-89
2021/09/07 12:03:45;;;;;;;10.65;7.38;;;30.10;99.90;;;;;;4966887;28;20224;-91
2021/09/07 12:06:14;;;;;;;20.92;11.32;;;30.30;99.90;;;;;;4966991;28;20224;-90
2021/09/07 12:08:48;;;;;;;12.50;7.65;;;30.60;99.90;;;;;;4966839;28;20196;-91
2021/09/07 12:11:27;;;;;;;18.50;9.88;;;30.80;99.70;;;;;;4983109;28;20195;-92
2021/09/07 12:14:04;;;;;;;15.95;9.75;;;30.50;99.70;;;;;;4965303;28;20216;-91
2021/09/07 12:16:31;;;;;;;11.75;7.07;;;30.70;99.90;;;;;;4983110;28;20220;-89
2021/09/07 12:18:57;;;;;;;10.55;6.70;;;30.70;99.90;;;;;;4983112;28;20223;-91
2021/09/07 12:21:27;;;;;;;12.68;7.22;;;30.00;99.90;;;;;;4966161;28;20224;-88
2021/09/07 12:23:54;;;;;;;16.48;9.30;;;29.00;99.90;;;;;;4966802;28;20255;-91
2021/09/07 12:26:37;;;;;;;18.10;9.88;;;28.80;99.90;;;;;;4968240;28;20598;-89
2021/09/07 12:29:14;;;;;;;13.68;9.25;;;29.10;99.90;;;;;;4983118;28;20238;-91
2021/09/07 12:31:41;;;;;;;16.02;8.40;;;29.30;99.90;;;;;;4966666;28;20220;-92
2021/09/07 12:34:07;;;;;;;18.88;9.77;;;29.40;99.90;;;;;;4966446;28;20212;-89
2021/09/07 12:36:44;;;;;;;16.67;9.23;;;29.40;99.90;;;;;;4966680;28;20223;-89
2021/09/07 12:39:10;;;;;;;19.83;9.88;;;29.10;99.90;;;;;;4966540;28;20425;-90
2021/09/07 12:41:36;;;;;;;14.75;8.80;;;28.70;99.90;;;;;;4982498;28;20208;-93
2021/09/07 12:44:02;;;;;;;14.68;9.43;;;29.10;99.90;;;;;;4983249;28;20609;-92